createdAt,value
2023-03-29T00:02:11.248Z,99166.75
2023-03-29T00:04:42.121Z,99150.75
2023-03-29T00:07:14.031Z,99156.47
2023-03-29T00:09:43.908Z,99146.20
2023-03-29T00:12:12.872Z,99146.20
2023-03-29T00:14:42.707Z,99141.99
2023-03-29T00:17:13.073Z,99142.67
2023-03-29T00:19:45.105Z,99151.09
2023-03-29T00:22:15.770Z,99153.79
2023-03-29T00:24:49.224Z,99148.91
2023-03-29T00:27:19.071Z,99152.94
2023-03-29T00:29:49.063Z,99145.87
2023-03-29T00:32:17.886Z,99152.42
2023-03-29T00:34:48.454Z,99155.13
2023-03-29T00:37:18.887Z,99157.47
2023-03-29T00:39:48.009Z,99155.13
2023-03-29T00:42:17.284Z,99162.52
2023-03-29T00:45:04.718Z,99150.72
2023-03-29T00:47:38.415Z,99159.65
2023-03-29T00:50:26.121Z,99156.45
2023-03-29T00:53:28.461Z,99154.27
2023-03-29T00:56:12.204Z,99179.17
2023-03-29T00:58:52.364Z,99165.19
2023-03-29T01:01:44.601Z,99153.39
2023-03-29T01:04:42.280Z,99184.02
2023-03-29T01:07:25.261Z,99182.52
2023-03-29T01:10:13.327Z,99202.55
2023-03-29T01:12:51.077Z,99215.68
2023-03-29T01:15:24.984Z,99204.56
2023-03-29T01:17:55.609Z,99207.58
2023-03-29T01:21:02.755Z,99225.25
2023-03-29T01:23:58.091Z,99223.39
2023-03-29T01:27:03.031Z,99231.50
2023-03-29T01:29:50.003Z,99227.14
2023-03-29T01:32:41.943Z,99237.56
2023-03-29T01:35:20.887Z,99243.14
2023-03-29T01:37:56.874Z,99247.02
2023-03-29T01:40:30.402Z,99247.52
2023-03-29T01:43:46.684Z,99250.05
2023-03-29T01:46:36.365Z,99255.59
2023-03-29T01:49:26.019Z,99244.48
2023-03-29T01:52:02.119Z,99262.16
2023-03-29T01:54:38.121Z,99260.80
2023-03-29T01:57:07.214Z,99266.53
2023-03-29T01:59:39.135Z,99276.14
2023-03-29T02:02:11.391Z,99284.05
2023-03-29T02:04:45.938Z,99288.09
2023-03-29T02:07:15.082Z,99282.70
2023-03-29T02:09:43.955Z,99298.17
2023-03-29T02:12:13.873Z,99292.63
2023-03-29T02:14:44.489Z,99314.70
2023-03-29T02:17:23.367Z,99320.59
2023-03-29T02:20:00.907Z,99312.33
2023-03-29T02:22:36.810Z,99319.41
2023-03-29T02:25:08.267Z,99319.25
2023-03-29T02:27:40.804Z,99336.91
2023-03-29T02:30:11.920Z,99334.41
2023-03-29T02:32:50.446Z,99338.95
2023-03-29T02:35:24.343Z,99341.14
2023-03-29T02:37:54.330Z,99344.86
2023-03-29T02:40:23.221Z,99345.87
2023-03-29T02:42:52.069Z,99350.91
2023-03-29T02:45:22.367Z,99355.11
2023-03-29T02:47:57.081Z,99347.34
2023-03-29T02:50:27.582Z,99343.28
2023-03-29T02:53:00.008Z,99341.74
2023-03-29T02:55:31.320Z,99350.48
2023-03-29T02:58:05.103Z,99348.98
2023-03-29T03:00:38.066Z,99349.66
2023-03-29T03:03:07.819Z,99356.93
2023-03-29T03:05:39.039Z,99355.42
2023-03-29T03:08:08.751Z,99354.92
2023-03-29T03:10:37.745Z,99357.94
2023-03-29T03:13:08.277Z,99358.06
2023-03-29T03:15:38.642Z,99359.41
2023-03-29T03:18:07.370Z,99362.98
2023-03-29T03:20:37.916Z,99364.51
2023-03-29T03:23:08.263Z,99365.20
2023-03-29T03:25:38.315Z,99368.58
2023-03-29T03:28:07.940Z,99365.38
2023-03-29T03:30:36.639Z,99369.23
2023-03-29T03:33:26.878Z,99373.94
2023-03-29T03:36:09.921Z,99380.98
2023-03-29T03:38:41.409Z,99397.14
2023-03-29T03:41:10.988Z,99384.53
2023-03-29T03:43:43.779Z,99392.80
2023-03-29T03:46:13.151Z,99379.67
2023-03-29T03:48:42.056Z,99370.24
2023-03-29T03:51:31.041Z,99388.06
2023-03-29T03:54:01.156Z,99395.48
2023-03-29T03:56:34.329Z,99400.69
2023-03-29T03:59:06.932Z,99395.77
2023-03-29T04:01:44.744Z,99406.20
2023-03-29T04:04:16.371Z,99412.23
2023-03-29T04:06:59.295Z,99415.44
2023-03-29T04:09:49.925Z,99419.81
2023-03-29T04:12:35.744Z,99427.20
2023-03-29T04:15:07.268Z,99416.09
2023-03-29T04:17:38.135Z,99432.75
2023-03-29T04:20:13.760Z,99418.44
2023-03-29T04:22:42.764Z,99425.48
2023-03-29T04:25:11.900Z,99424.64
2023-03-29T04:27:50.519Z,99425.48
2023-03-29T04:30:21.118Z,99438.79
2023-03-29T04:33:09.236Z,99440.83
2023-03-29T04:35:39.035Z,99451.60
2023-03-29T04:38:09.952Z,99443.33
2023-03-29T04:40:39.216Z,99458.48
2023-03-29T04:43:14.249Z,99468.41
2023-03-29T04:45:45.970Z,99465.38
2023-03-29T04:48:22.361Z,99463.84
2023-03-29T04:50:52.046Z,99468.72
2023-03-29T04:53:22.000Z,99461.33
2023-03-29T04:55:52.632Z,99463.72
2023-03-29T04:58:28.264Z,99468.26
2023-03-29T05:01:00.071Z,99474.99
2023-03-29T05:03:36.360Z,99479.73
2023-03-29T05:06:09.544Z,99481.88
2023-03-29T05:08:39.361Z,99459.33
2023-03-29T05:11:16.293Z,99486.53
2023-03-29T05:13:45.743Z,99476.91
2023-03-29T05:16:15.843Z,99480.61
2023-03-29T05:18:48.219Z,99463.10
2023-03-29T05:21:20.255Z,99482.22
2023-03-29T05:23:50.125Z,99484.38
2023-03-29T05:26:20.069Z,99484.69
2023-03-29T05:28:52.521Z,99493.76
2023-03-29T05:31:23.499Z,99487.18
2023-03-29T05:33:54.198Z,99508.56
2023-03-29T05:36:23.174Z,99490.06
2023-03-29T05:38:52.114Z,99491.61
2023-03-29T05:41:24.638Z,99493.15
2023-03-29T05:43:53.346Z,99503.62
2023-03-29T05:46:24.060Z,99494.77
2023-03-29T05:48:55.019Z,99509.23
2023-03-29T05:51:26.165Z,99504.96
2023-03-29T05:53:58.072Z,99518.65
2023-03-29T05:56:28.733Z,99505.95
2023-03-29T05:58:58.375Z,99507.30
2023-03-29T06:01:27.348Z,99512.07
2023-03-29T06:04:03.968Z,99519.65
2023-03-29T06:06:38.908Z,99528.92
2023-03-29T06:09:07.948Z,99529.92
2023-03-29T06:11:39.305Z,99525.23
2023-03-29T06:14:13.526Z,99532.66
2023-03-29T06:16:46.553Z,99540.28
2023-03-29T06:19:17.259Z,99537.44
2023-03-29T06:21:48.504Z,99541.98
2023-03-29T06:24:20.881Z,99545.17
2023-03-29T06:26:53.422Z,99558.94
2023-03-29T06:29:22.491Z,99552.81
2023-03-29T06:31:56.625Z,99551.46
2023-03-29T06:34:46.145Z,99557.89
2023-03-29T06:37:35.072Z,99571.36
2023-03-29T06:40:21.178Z,99562.62
2023-03-29T06:42:50.915Z,99565.82
2023-03-29T06:45:35.022Z,99564.32
2023-03-29T06:48:07.465Z,99573.45
2023-03-29T06:50:38.482Z,99583.91
2023-03-29T06:53:13.214Z,99577.03
2023-03-29T06:55:42.788Z,99598.08
2023-03-29T06:58:17.865Z,99591.50
2023-03-29T07:00:48.887Z,99585.27
2023-03-29T07:03:22.292Z,99588.66
2023-03-29T07:05:56.371Z,99597.43
2023-03-29T07:08:28.359Z,99607.05
2023-03-29T07:11:03.518Z,99614.83
2023-03-29T07:13:36.166Z,99617.17
2023-03-29T07:16:28.398Z,99633.98
2023-03-29T07:19:11.013Z,99631.45
2023-03-29T07:21:54.367Z,99644.22
2023-03-29T07:24:26.696Z,99635.14
2023-03-29T07:27:04.070Z,99633.94
2023-03-29T07:29:29.287Z,99657.69
2023-03-29T07:32:01.714Z,99639.17
2023-03-29T07:34:46.318Z,99654.64
2023-03-29T07:37:29.988Z,99663.27
2023-03-29T07:40:01.314Z,99673.09
2023-03-29T07:42:48.159Z,99676.14
2023-03-29T07:45:26.860Z,99674.30
2023-03-29T07:47:58.736Z,99674.09
2023-03-29T07:50:31.213Z,99684.07
2023-03-29T07:53:05.937Z,99693.75
2023-03-29T07:55:38.092Z,99687.36
2023-03-29T07:58:22.618Z,99690.60
2023-03-29T08:00:52.600Z,99698.69
2023-03-29T08:03:29.216Z,99700.88
2023-03-29T08:06:02.708Z,99703.17
2023-03-29T08:08:33.040Z,99705.07
2023-03-29T08:11:06.954Z,99711.66
2023-03-29T08:13:59.155Z,99711.70
2023-03-29T08:16:28.287Z,99717.48
2023-03-29T08:19:04.832Z,99711.25
2023-03-29T08:21:38.652Z,99726.23
2023-03-29T08:24:08.747Z,99724.88
2023-03-29T08:26:42.132Z,99736.31
2023-03-29T08:29:12.073Z,99730.27
2023-03-29T08:31:40.996Z,99728.63
2023-03-29T08:34:11.848Z,99722.58
2023-03-29T08:36:55.841Z,99731.25
2023-03-29T08:39:31.652Z,99732.80
2023-03-29T08:42:18.250Z,99734.44
2023-03-29T08:45:00.299Z,99731.97
2023-03-29T08:48:10.615Z,99740.85
2023-03-29T08:50:46.409Z,99742.35
2023-03-29T08:53:29.279Z,99742.55
2023-03-29T08:56:15.876Z,99744.05
2023-03-29T08:58:59.677Z,99756.83
2023-03-29T09:01:36.144Z,99755.48
2023-03-29T09:04:15.334Z,99753.48
2023-03-29T09:06:47.574Z,99758.08
2023-03-29T09:09:22.809Z,99764.47
2023-03-29T09:12:09.200Z,99761.56
2023-03-29T09:15:08.405Z,99758.52
2023-03-29T09:17:49.572Z,99750.78
2023-03-29T09:20:56.368Z,99762.62
2023-03-29T09:24:13.513Z,99767.70
2023-03-29T09:26:54.905Z,99770.69
2023-03-29T09:30:04.506Z,99780.97
2023-03-29T09:33:30.292Z,99771.69
2023-03-29T09:36:27.968Z,99792.41
2023-03-29T09:38:58.106Z,99779.77
2023-03-29T09:41:44.687Z,99791.25
2023-03-29T09:44:30.838Z,99805.93
2023-03-29T09:46:58.606Z,99804.58
2023-03-29T09:49:35.784Z,99799.84
2023-03-29T09:52:11.350Z,99810.47
2023-03-29T09:54:41.076Z,99817.77
2023-03-29T09:57:21.539Z,99811.32
2023-03-29T09:59:51.580Z,99821.91
2023-03-29T10:02:21.556Z,99822.61
2023-03-29T10:04:58.222Z,99831.19
2023-03-29T10:07:42.296Z,99842.48
2023-03-29T10:10:23.516Z,99843.67
2023-03-29T10:12:56.971Z,99836.48
2023-03-29T10:15:30.112Z,99854.22
2023-03-29T10:18:03.816Z,99842.28
2023-03-29T10:20:39.412Z,99858.46
2023-03-29T10:23:12.046Z,99853.56
2023-03-29T10:25:43.718Z,99866.64
2023-03-29T10:28:16.064Z,99859.55
2023-03-29T10:30:49.253Z,99863.95
2023-03-29T10:33:21.042Z,99861.95
2023-03-29T10:35:50.098Z,99872.09
2023-03-29T10:38:20.656Z,99879.88
2023-03-29T10:40:51.493Z,99876.59
2023-03-29T10:43:29.836Z,99883.53
2023-03-29T10:46:12.632Z,99878.80
2023-03-29T10:48:49.312Z,99874.05
2023-03-29T10:51:19.014Z,99882.14
2023-03-29T10:53:47.890Z,99886.94
2023-03-29T10:56:45.973Z,99878.55
2023-03-29T10:59:27.603Z,99877.90
2023-03-29T11:02:37.310Z,99880.20
2023-03-29T11:05:33.070Z,99877.70
2023-03-29T11:08:28.495Z,99880.25
2023-03-29T11:11:09.339Z,99876.90
2023-03-29T11:14:00.497Z,99890.19
2023-03-29T11:16:35.601Z,99880.89
2023-03-29T11:19:44.756Z,99887.09
2023-03-29T11:22:55.290Z,99884.89
2023-03-29T11:25:38.532Z,99888.59
2023-03-29T11:28:49.565Z,99891.48
2023-03-29T11:31:39.289Z,99898.08
2023-03-29T11:34:39.975Z,99885.94
2023-03-29T11:37:29.130Z,99894.19
2023-03-29T11:40:28.449Z,99893.89
2023-03-29T11:42:59.785Z,99893.23
2023-03-29T11:45:54.818Z,99889.89
2023-03-29T11:48:28.135Z,99886.54
2023-03-29T11:51:13.817Z,99892.48
2023-03-29T11:53:48.460Z,99905.48
2023-03-29T11:56:40.953Z,99899.93
2023-03-29T11:59:39.018Z,99905.67
2023-03-29T12:02:27.543Z,99907.52
2023-03-29T12:04:59.008Z,99912.63
2023-03-29T12:07:35.390Z,99914.67
2023-03-29T12:10:20.872Z,99909.86
2023-03-29T12:13:10.040Z,99919.64
2023-03-29T12:15:56.357Z,99919.55
2023-03-29T12:18:45.427Z,99916.70
2023-03-29T12:21:19.126Z,99920.70
2023-03-29T12:23:49.635Z,99915.65
2023-03-29T12:26:48.365Z,99920.39
2023-03-29T12:29:39.239Z,99920.09
2023-03-29T12:32:37.073Z,99930.23
2023-03-29T12:35:44.031Z,99935.98
2023-03-29T12:38:31.779Z,99930.59
2023-03-29T12:41:14.119Z,99946.63
2023-03-29T12:44:02.028Z,99940.19
2023-03-29T12:46:36.138Z,99940.14
2023-03-29T12:49:24.433Z,99937.79
2023-03-29T12:51:54.230Z,99940.54
2023-03-29T12:54:27.553Z,99948.84
2023-03-29T12:57:17.237Z,99949.03
2023-03-29T12:59:49.030Z,99947.03
2023-03-29T13:02:23.183Z,99950.58
2023-03-29T13:04:54.968Z,99950.28
2023-03-29T13:07:29.143Z,99947.92
2023-03-29T13:10:05.212Z,99955.37
2023-03-29T13:12:39.598Z,99962.47
2023-03-29T13:15:21.222Z,99955.53
2023-03-29T13:18:13.733Z,99969.67
2023-03-29T13:21:06.609Z,99963.53
2023-03-29T13:23:46.201Z,99960.48
2023-03-29T13:26:42.338Z,99970.87
2023-03-29T13:29:16.389Z,99980.33
2023-03-29T13:32:19.283Z,99979.63
2023-03-29T13:34:53.672Z,99979.73
2023-03-29T13:38:08.669Z,99990.47
2023-03-29T13:40:48.497Z,99987.67
2023-03-29T13:43:24.864Z,100008.06
2023-03-29T13:46:04.697Z,100012.06
2023-03-29T13:48:39.331Z,100017.27
2023-03-29T13:51:22.912Z,100024.36
2023-03-29T13:54:02.359Z,100019.66
2023-03-29T13:56:45.797Z,100010.37
2023-03-29T13:59:25.214Z,100029.41
2023-03-29T14:01:57.629Z,100045.95
2023-03-29T14:04:39.870Z,100050.86
2023-03-29T14:07:12.615Z,100060.30
2023-03-29T14:09:45.728Z,100057.60
2023-03-29T14:12:15.372Z,100061.16
2023-03-29T14:14:58.280Z,100066.55
2023-03-29T14:17:21.732Z,100071.75
2023-03-29T14:19:50.817Z,100071.89
2023-03-29T14:22:21.155Z,100073.59
2023-03-29T14:24:54.362Z,100082.05
2023-03-29T14:27:23.670Z,100078.84
2023-03-29T14:29:53.951Z,100079.05
2023-03-29T14:32:31.213Z,100080.45
2023-03-29T14:35:00.781Z,100082.86
2023-03-29T14:37:30.589Z,100094.77
2023-03-29T14:40:00.001Z,100091.37
2023-03-29T14:42:29.175Z,100090.66
2023-03-29T14:45:05.250Z,100101.17
2023-03-29T14:47:34.955Z,100101.17
2023-03-29T14:50:05.848Z,100107.12
2023-03-29T14:52:34.626Z,100108.33
2023-03-29T14:55:05.843Z,100102.43
2023-03-29T14:57:37.512Z,100106.62
2023-03-29T15:00:30.994Z,100107.42
2023-03-29T15:03:02.449Z,100114.73
2023-03-29T15:05:37.309Z,100119.78
2023-03-29T15:08:07.460Z,100125.83
2023-03-29T15:10:37.227Z,100122.56
2023-03-29T15:13:07.036Z,100121.66
2023-03-29T15:15:38.086Z,100124.36
2023-03-29T15:18:07.235Z,100128.55
2023-03-29T15:20:39.771Z,100137.56
2023-03-29T15:23:18.145Z,100134.45
2023-03-29T15:25:58.536Z,100139.05
2023-03-29T15:28:34.129Z,100148.80
2023-03-29T15:31:12.163Z,100141.49
2023-03-29T15:33:41.800Z,100150.89
2023-03-29T15:36:12.500Z,100153.88
2023-03-29T15:38:45.097Z,100154.88
2023-03-29T15:41:14.330Z,100153.82
2023-03-29T15:43:44.035Z,100164.62
2023-03-29T15:46:13.707Z,100159.51
2023-03-29T15:48:42.447Z,100166.91
2023-03-29T15:51:12.744Z,100170.19
2023-03-29T15:53:43.155Z,100189.16
2023-03-29T15:56:16.757Z,100179.50
2023-03-29T15:58:47.165Z,100184.41
2023-03-29T16:01:28.037Z,100189.66
2023-03-29T16:03:57.695Z,100198.75
2023-03-29T16:06:27.663Z,100197.41
2023-03-29T16:08:57.420Z,100196.91
2023-03-29T16:11:27.900Z,100192.16
2023-03-29T16:13:58.036Z,100195.00
2023-03-29T16:16:26.843Z,100196.03
2023-03-29T16:18:55.781Z,100206.62
2023-03-29T16:21:24.471Z,100213.02
2023-03-29T16:23:54.705Z,100207.26
2023-03-29T16:26:26.484Z,100204.06
2023-03-29T16:28:55.343Z,100207.11
2023-03-29T16:31:26.164Z,100199.87
2023-03-29T16:33:56.529Z,100209.60
2023-03-29T16:36:25.956Z,100205.70
2023-03-29T16:38:56.894Z,100207.55
2023-03-29T16:41:25.668Z,100202.79
2023-03-29T16:43:54.336Z,100211.88
2023-03-29T16:46:25.530Z,100223.31
2023-03-29T16:48:54.700Z,100223.80
2023-03-29T16:51:25.327Z,100231.69
2023-03-29T16:53:54.170Z,100239.07
2023-03-29T16:56:23.529Z,100234.39
2023-03-29T16:58:53.979Z,100235.02
2023-03-29T17:01:22.923Z,100246.52
2023-03-29T17:03:51.801Z,100247.73
2023-03-29T17:06:22.472Z,100253.98
2023-03-29T17:08:51.641Z,100255.33
2023-03-29T17:11:24.079Z,100251.14
2023-03-29T17:13:53.241Z,100253.34
2023-03-29T17:16:21.892Z,100270.53
2023-03-29T17:18:50.962Z,100279.48
2023-03-29T17:21:20.128Z,100279.20
2023-03-29T17:23:50.234Z,100282.25
2023-03-29T17:26:19.038Z,100277.98
2023-03-29T17:28:49.227Z,100275.92
2023-03-29T17:31:21.172Z,100281.82
2023-03-29T17:33:51.811Z,100280.83
2023-03-29T17:36:23.621Z,100287.71
2023-03-29T17:38:54.584Z,100287.00
2023-03-29T17:41:23.414Z,100288.84
2023-03-29T17:43:53.674Z,100292.17
2023-03-29T17:46:23.700Z,100298.78
2023-03-29T17:48:52.354Z,100286.50
2023-03-29T17:51:24.363Z,100298.29
2023-03-29T17:53:56.026Z,100299.78
2023-03-29T17:56:26.794Z,100301.63
2023-03-29T17:58:58.709Z,100304.73
2023-03-29T18:01:29.719Z,100309.42
2023-03-29T18:03:59.950Z,100314.95
2023-03-29T18:06:29.418Z,100318.50
2023-03-29T18:09:03.855Z,100323.55
2023-03-29T18:11:36.268Z,100324.89
2023-03-29T18:14:05.954Z,100332.35
2023-03-29T18:16:36.456Z,100340.31
2023-03-29T18:19:06.147Z,100346.91
2023-03-29T18:21:36.947Z,100348.76
2023-03-29T18:24:07.272Z,100346.14
2023-03-29T18:26:36.949Z,100346.77
2023-03-29T18:29:07.920Z,100345.92
2023-03-29T18:31:36.828Z,100343.36
2023-03-29T18:34:05.904Z,100351.59
2023-03-29T18:36:37.081Z,100343.77
2023-03-29T18:39:06.039Z,100347.11
2023-03-29T18:41:37.127Z,100350.66
2023-03-29T18:44:07.278Z,100360.95
2023-03-29T18:46:36.144Z,100353.14
2023-03-29T18:49:07.226Z,100365.05
2023-03-29T18:51:36.029Z,100354.54
2023-03-29T18:54:05.654Z,100360.79
2023-03-29T18:56:35.543Z,100364.20
2023-03-29T18:59:06.208Z,100363.34
2023-03-29T19:01:36.156Z,100357.95
2023-03-29T19:04:06.226Z,100354.54
2023-03-29T19:06:35.966Z,100362.13
2023-03-29T19:09:05.682Z,100372.30
2023-03-29T19:11:35.807Z,100373.51
2023-03-29T19:14:06.545Z,100364.42
2023-03-29T19:16:36.516Z,100356.91
2023-03-29T19:19:07.162Z,100365.50
2023-03-29T19:21:38.141Z,100374.08
2023-03-29T19:24:08.202Z,100370.31
2023-03-29T19:26:36.971Z,100354.77
2023-03-29T19:29:05.876Z,100362.63
2023-03-29T19:31:36.620Z,100361.78
2023-03-29T19:34:06.518Z,100366.81
2023-03-29T19:36:35.781Z,100372.20
2023-03-29T19:39:05.052Z,100359.22
2023-03-29T19:41:33.803Z,100367.45
2023-03-29T19:44:02.979Z,100379.22
2023-03-29T19:46:31.743Z,100377.66
2023-03-29T19:49:05.811Z,100374.24
2023-03-29T19:51:36.101Z,100372.53
2023-03-29T19:54:07.111Z,100374.88
2023-03-29T19:56:37.352Z,100372.53
2023-03-29T19:59:08.622Z,100367.55
2023-03-29T20:01:39.634Z,100372.50
2023-03-29T20:04:09.029Z,100364.67
2023-03-29T20:06:39.171Z,100380.00
2023-03-29T20:09:08.637Z,100383.82
2023-03-29T20:11:39.507Z,100380.27
2023-03-29T20:14:08.193Z,100375.47
2023-03-29T20:16:37.352Z,100370.44
2023-03-29T20:19:06.738Z,100378.17
2023-03-29T20:21:38.939Z,100384.81
2023-03-29T20:24:08.582Z,100386.16
2023-03-29T20:26:38.206Z,100387.01
2023-03-29T20:29:08.873Z,100395.09
2023-03-29T20:31:38.068Z,100394.60
2023-03-29T20:34:07.208Z,100388.72
2023-03-29T20:36:36.950Z,100390.56
2023-03-29T20:39:07.681Z,100392.77
2023-03-29T20:41:38.166Z,100396.31
2023-03-29T20:44:07.289Z,100398.75
2023-03-29T20:46:37.828Z,100393.36
2023-03-29T20:49:10.724Z,100393.49
2023-03-29T20:51:39.902Z,100391.06
2023-03-29T20:54:09.723Z,100397.45
2023-03-29T20:56:39.821Z,100397.58
2023-03-29T20:59:11.052Z,100406.16
2023-03-29T21:01:40.500Z,100406.16
2023-03-29T21:04:11.352Z,100413.63
2023-03-29T21:06:41.154Z,100404.32
2023-03-29T21:09:10.053Z,100407.87
2023-03-29T21:11:41.039Z,100410.07
2023-03-29T21:14:14.012Z,100412.90
2023-03-29T21:16:43.701Z,100413.30
2023-03-29T21:19:14.576Z,100412.22
2023-03-29T21:21:44.623Z,100408.67
2023-03-29T21:24:14.377Z,100414.42
2023-03-29T21:26:44.412Z,100419.09
2023-03-29T21:29:13.811Z,100418.86
2023-03-29T21:31:43.693Z,100414.33
2023-03-29T21:34:12.563Z,100415.31
2023-03-29T21:36:42.342Z,100414.45
2023-03-29T21:39:11.946Z,100409.92
2023-03-29T21:41:40.471Z,100415.31
2023-03-29T21:44:10.168Z,100416.30
2023-03-29T21:46:41.478Z,100417.78
2023-03-29T21:49:10.814Z,100416.20
2023-03-29T21:51:39.982Z,100414.14
2023-03-29T21:54:09.750Z,100417.81
2023-03-29T21:56:39.700Z,100431.66
2023-03-29T21:59:08.537Z,100435.95
2023-03-29T22:01:37.356Z,100431.33
2023-03-29T22:04:06.648Z,100436.84
2023-03-29T22:06:37.443Z,100438.81
2023-03-29T22:09:11.412Z,100437.47
2023-03-29T22:11:40.182Z,100439.31
2023-03-29T22:14:10.538Z,100437.11
2023-03-29T22:16:40.676Z,100439.44
2023-03-29T22:19:10.394Z,100429.25
2023-03-29T22:21:40.828Z,100441.15
2023-03-29T22:24:09.881Z,100440.92
2023-03-29T22:26:38.664Z,100439.47
2023-03-29T22:29:08.991Z,100446.83
2023-03-29T22:31:39.638Z,100439.60
2023-03-29T22:34:08.682Z,100433.72
2023-03-29T22:36:38.897Z,100439.23
2023-03-29T22:39:07.669Z,100436.91
2023-03-29T22:41:37.407Z,100437.89
2023-03-29T22:44:06.220Z,100433.00
2023-03-29T22:46:36.409Z,100435.43
2023-03-29T22:49:06.877Z,100434.47
2023-03-29T22:51:36.561Z,100435.45
2023-03-29T22:54:05.751Z,100431.19
2023-03-29T22:56:34.522Z,100438.55
2023-03-29T22:59:03.359Z,100428.26
2023-03-29T23:01:31.901Z,100434.50
2023-03-29T23:04:02.602Z,100438.67
2023-03-29T23:06:31.370Z,100437.33
2023-03-29T23:09:00.291Z,100439.89
2023-03-29T23:11:29.866Z,100441.37
2023-03-29T23:13:59.325Z,100434.27
2023-03-29T23:16:29.169Z,100438.80
2023-03-29T23:18:59.131Z,100438.94
2023-03-29T23:21:27.983Z,100449.83
2023-03-29T23:23:56.817Z,100435.88
2023-03-29T23:26:27.444Z,100441.88
2023-03-29T23:28:57.162Z,100443.72
2023-03-29T23:31:25.864Z,100450.31
2023-03-29T23:33:55.011Z,100446.17
2023-03-29T23:36:25.380Z,100443.38
2023-03-29T23:38:55.519Z,100440.06
2023-03-29T23:41:26.543Z,100440.30
2023-03-29T23:43:57.264Z,100452.41
2023-03-29T23:46:25.803Z,100455.23
2023-03-29T23:48:55.684Z,100445.09
2023-03-29T23:51:26.147Z,100447.91
2023-03-29T23:53:55.771Z,100448.16
2023-03-29T23:56:26.226Z,100450.36
2023-03-29T23:58:55.260Z,100437.39
